Time;durP1;ratioP1;P1;durP2;ratioP2;P2;SDS_P1;SDS_P2;PMS_P1;PMS_P2;Temp;Humidity;BMP_temperature;BMP_pressure;BME280_temperature;BME280_humidity;BME280_pressure;Samples;Min_cycle;Max_cycle;Signal;HPM_P1;HPM_P2
2021/05/05 00:01:03;;;;;;;2.80;0.25;;;;;;;2.43;63.57;99230.31;4989824;28;20617;-65
2021/05/05 00:03:29;;;;;;;3.28;0.77;;;;;;;3.09;61.88;99223.78;5007314;28;20080;-65
2021/05/05 00:05:55;;;;;;;6.80;0.73;;;;;;;3.25;61.81;99231.81;5007658;28;20061;-66
2021/05/05 00:08:20;;;;;;;5.32;0.28;;;;;;;3.39;60.85;99228.75;5002064;28;20034;-66
2021/05/05 00:10:47;;;;;;;12.80;0.95;;;;;;;3.03;62.55;99230.88;4991312;28;20485;-67
2021/05/05 00:13:14;;;;;;;4.63;0.43;;;;;;;3.47;60.22;99231.91;4989676;28;20481;-69
2021/05/05 00:15:40;;;;;;;3.00;0.73;;;;;;;2.83;62.41;99223.84;5008928;28;20407;-69
2021/05/05 00:18:06;;;;;;;5.65;0.55;;;;;;;3.19;61.45;99248.34;4992423;28;20038;-67
2021/05/05 00:20:31;;;;;;;5.90;0.70;;;;;;;3.05;61.90;99244.59;5007729;28;20522;-66
2021/05/05 00:22:57;;;;;;;3.15;0.45;;;;;;;3.02;61.76;99258.41;5006528;28;20054;-66
2021/05/05 00:25:22;;;;;;;4.88;0.57;;;;;;;3.06;62.26;99252.25;5007391;28;20030;-68
2021/05/05 00:27:50;;;;;;;2.35;0.25;;;;;;;2.79;62.23;99248.06;5006669;28;20026;-66
2021/05/05 00:30:16;;;;;;;2.92;0.47;;;;;;;3.27;61.42;99253.25;4996366;28;20025;-67
2021/05/05 00:32:42;;;;;;;2.17;0.47;;;;;;;3.31;60.99;99241.94;5003450;28;20031;-66
2021/05/05 00:35:08;;;;;;;12.90;0.65;;;;;;;2.93;62.36;99256.16;4989934;28;20465;-66
2021/05/05 00:37:34;;;;;;;10.00;0.43;;;;;;;2.91;61.25;99238.16;5005442;28;20038;-68
2021/05/05 00:39:59;;;;;;;7.22;0.63;;;;;;;2.80;61.72;99260.03;4990652;28;20049;-68
2021/05/05 00:42:25;;;;;;;4.60;0.40;;;;;;;2.93;60.88;99251.81;5006761;28;20036;-68
2021/05/05 00:44:57;;;;;;;4.35;0.35;;;;;;;3.03;60.84;99251.53;5002345;28;20061;-69
2021/05/05 00:47:23;;;;;;;5.90;0.20;;;;;;;2.70;61.18;99247.47;5005456;28;20025;-67
2021/05/05 00:49:49;;;;;;;2.20;0.13;;;;;;;2.76;61.98;99264.47;5006550;28;20083;-67
2021/05/05 00:52:14;;;;;;;3.67;0.17;;;;;;;3.11;61.15;99249.50;4990226;28;20332;-67
2021/05/05 00:54:40;;;;;;;3.63;0.45;;;;;;;2.83;61.87;99262.53;5005014;28;20030;-66
2021/05/05 00:57:06;;;;;;;10.23;0.45;;;;;;;3.13;61.27;99258.88;5006875;28;20057;-68
2021/05/05 00:59:32;;;;;;;5.70;0.30;;;;;;;3.13;61.07;99251.13;4990913;28;20033;-67
2021/05/05 01:01:58;;;;;;;5.80;0.28;;;;;;;3.63;59.76;99264.91;5002953;28;20164;-65
2021/05/05 01:04:23;;;;;;;6.55;0.73;;;;;;;3.16;60.90;99263.97;5005362;28;20030;-68
2021/05/05 01:06:51;;;;;;;3.80;0.28;;;;;;;3.38;60.71;99258.03;5006811;28;20036;-67
2021/05/05 01:09:17;;;;;;;7.35;0.15;;;;;;;3.39;60.56;99259.75;5003265;28;20067;-67
2021/05/05 01:11:43;;;;;;;10.27;0.65;;;;;;;3.98;59.11;99261.88;4973744;28;20514;-66
2021/05/05 01:14:10;;;;;;;4.40;0.20;;;;;;;2.84;61.44;99266.78;4989774;28;20033;-66
2021/05/05 01:16:36;;;;;;;3.95;0.20;;;;;;;3.24;60.56;99257.69;5006433;28;20041;-72
2021/05/05 01:19:03;;;;;;;4.43;0.20;;;;;;;3.49;59.76;99260.25;4973903;28;20037;-64
2021/05/05 01:21:28;;;;;;;1.52;0.30;;;;;;;2.74;60.87;99241.31;4970467;28;20217;-65
2021/05/05 01:23:54;;;;;;;2.83;0.10;;;;;;;2.82;61.21;99266.84;5003591;28;20560;-66
2021/05/05 01:26:20;;;;;;;4.38;0.47;;;;;;;2.97;61.25;99262.91;5004407;28;20089;-66
2021/05/05 01:28:45;;;;;;;4.22;0.20;;;;;;;3.82;58.97;99265.91;5004297;28;20115;-66
2021/05/05 01:31:16;;;;;;;3.83;0.20;;;;;;;3.98;58.72;99268.75;4989780;28;20117;-66
2021/05/05 01:33:43;;;;;;;6.25;0.43;;;;;;;3.49;60.33;99266.28;5005324;28;20030;-66
2021/05/05 01:36:15;;;;;;;3.72;0.30;;;;;;;2.96;62.34;99271.56;5004472;28;20030;-67
2021/05/05 01:38:41;;;;;;;3.42;0.55;;;;;;;3.58;60.20;99281.44;4989624;28;20107;-67
2021/05/05 01:41:06;;;;;;;2.28;0.20;;;;;;;3.46;59.94;99266.38;4985746;28;20072;-66
2021/05/05 01:43:32;;;;;;;7.25;0.70;;;;;;;3.22;60.83;99257.72;5003764;28;20034;-66
2021/05/05 01:45:59;;;;;;;12.05;0.70;;;;;;;2.91;62.08;99260.53;5003536;28;20123;-66
2021/05/05 01:48:24;;;;;;;2.80;0.40;;;;;;;3.13;61.39;99261.47;5004975;28;20118;-66
2021/05/05 01:50:50;;;;;;;7.78;0.30;;;;;;;2.60;62.53;99251.25;5001272;28;20034;-66
2021/05/05 01:53:17;;;;;;;2.25;0.52;;;;;;;3.21;60.71;99262.97;5005519;28;20125;-65
2021/05/05 01:55:44;;;;;;;5.47;0.50;;;;;;;3.00;60.64;99255.03;4988085;28;20234;-66
2021/05/05 01:58:11;;;;;;;4.45;0.28;;;;;;;3.04;61.03;99258.38;5005115;28;20068;-65
2021/05/05 02:00:38;;;;;;;6.35;0.75;;;;;;;3.50;59.28;99267.94;5000850;28;20045;-67
2021/05/05 02:03:07;;;;;;;4.47;0.30;;;;;;;3.20;60.25;99259.50;4990545;28;20498;-66
2021/05/05 02:05:42;;;;;;;4.60;0.20;;;;;;;3.20;60.08;99264.69;5003661;28;20109;-66
2021/05/05 02:08:14;;;;;;;2.75;0.40;;;;;;;3.38;59.78;99255.47;4972563;28;20038;-65
2021/05/05 02:10:41;;;;;;;7.47;0.32;;;;;;;2.49;62.78;99261.06;4983785;28;20073;-66
2021/05/05 02:13:07;;;;;;;6.28;0.43;;;;;;;3.17;60.75;99265.63;4987297;28;20033;-66
2021/05/05 02:15:32;;;;;;;4.97;0.38;;;;;;;2.97;61.37;99255.16;5003457;28;20030;-65
2021/05/05 02:18:02;;;;;;;3.95;0.30;;;;;;;2.97;60.40;99274.06;4986811;28;20042;-65
2021/05/05 02:20:29;;;;;;;6.80;1.00;;;;;;;3.10;60.19;99263.34;4983839;28;20068;-65
2021/05/05 02:22:58;;;;;;;5.80;0.20;;;;;;;3.15;59.58;99259.69;4989151;28;20493;-67
2021/05/05 02:25:25;;;;;;;5.22;0.32;;;;;;;3.25;59.31;99257.63;4983437;28;20375;-70
2021/05/05 02:27:51;;;;;;;9.98;1.25;;;;;;;2.63;61.89;99274.34;5000040;28;20041;-70
2021/05/05 02:30:24;;;;;;;3.42;0.40;;;;;;;2.87;60.54;99267.53;4986708;28;20029;-68
2021/05/05 02:32:53;;;;;;;3.03;0.40;;;;;;;2.84;60.60;99259.88;5005331;28;20108;-70
2021/05/05 02:35:19;;;;;;;4.95;0.80;;;;;;;3.47;58.63;99270.66;4983518;28;20063;-71
2021/05/05 02:37:47;;;;;;;9.00;1.00;;;;;;;3.26;59.76;99269.63;4985973;28;20044;-67
2021/05/05 02:40:13;;;;;;;4.68;1.10;;;;;;;2.70;60.79;99260.34;5004821;28;20391;-64
2021/05/05 02:42:40;;;;;;;7.22;0.70;;;;;;;3.37;58.83;99261.53;4997230;28;20085;-66
2021/05/05 02:45:07;;;;;;;8.07;0.35;;;;;;;3.91;57.45;99260.38;4984624;28;20038;-66
2021/05/05 02:47:33;;;;;;;3.63;0.20;;;;;;;3.26;58.54;99250.72;5005713;28;20076;-67
2021/05/05 02:49:59;;;;;;;4.70;0.32;;;;;;;3.45;58.30;99262.13;4987512;28;20038;-66
2021/05/05 02:52:25;;;;;;;8.35;0.50;;;;;;;3.42;58.18;99259.63;4985690;28;20317;-67
2021/05/05 02:54:50;;;;;;;12.80;0.30;;;;;;;3.38;58.13;99253.75;4991124;28;20032;-65
2021/05/05 02:57:16;;;;;;;2.78;0.20;;;;;;;3.32;58.83;99263.47;4995180;28;20462;-65
2021/05/05 02:59:41;;;;;;;11.98;0.60;;;;;;;3.28;58.50;99251.50;5000769;28;20035;-66
2021/05/05 03:02:07;;;;;;;10.88;0.43;;;;;;;3.22;58.94;99247.41;4986309;28;20060;-67
2021/05/05 03:04:33;;;;;;;11.52;0.60;;;;;;;3.22;58.21;99252.56;5004579;28;20029;-67
2021/05/05 03:06:59;;;;;;;9.60;0.35;;;;;;;3.63;57.25;99249.41;4989470;28;20030;-65
2021/05/05 03:09:26;;;;;;;2.50;0.22;;;;;;;3.52;57.20;99253.25;5003302;28;20403;-65
2021/05/05 03:11:57;;;;;;;12.65;0.75;;;;;;;3.34;58.02;99243.59;5002888;28;20030;-65
2021/05/05 03:14:27;;;;;;;7.00;0.50;;;;;;;3.09;58.03;99241.84;5005303;28;20030;-66
2021/05/05 03:16:53;;;;;;;13.43;0.60;;;;;;;3.54;57.04;99248.88;4977700;28;20866;-66
2021/05/05 03:19:19;;;;;;;2.38;0.10;;;;;;;3.33;57.55;99254.78;5004003;28;20434;-65
2021/05/05 03:21:45;;;;;;;4.80;0.68;;;;;;;3.63;56.42;99252.84;4989096;28;20070;-66
2021/05/05 03:24:11;;;;;;;4.47;0.43;;;;;;;3.09;57.57;99246.13;5001999;28;20034;-65
2021/05/05 03:26:37;;;;;;;5.43;0.40;;;;;;;3.17;57.08;99242.41;5001699;28;20179;-65
2021/05/05 03:29:03;;;;;;;12.68;0.63;;;;;;;2.81;57.39;99241.94;5001322;28;20107;-65
2021/05/05 03:31:29;;;;;;;4.95;0.43;;;;;;;3.34;55.94;99251.34;5000002;28;20068;-65
2021/05/05 03:33:55;;;;;;;9.35;1.88;;;;;;;2.68;57.74;99243.25;5003202;28;20034;-68
2021/05/05 03:36:20;;;;;;;7.18;0.60;;;;;;;3.12;56.85;99246.06;4983505;28;20482;-65
2021/05/05 03:38:46;;;;;;;9.13;0.38;;;;;;;3.36;56.17;99249.53;4970856;28;20083;-65
2021/05/05 03:41:12;;;;;;;7.60;0.47;;;;;;;2.71;58.15;99251.75;5003292;28;20040;-64
2021/05/05 03:43:37;;;;;;;7.07;0.70;;;;;;;3.27;56.22;99239.47;4987699;28;20038;-66
2021/05/05 03:46:03;;;;;;;7.22;0.47;;;;;;;3.25;56.91;99252.47;4988948;28;20036;-65
2021/05/05 03:48:29;;;;;;;7.05;0.68;;;;;;;2.88;58.11;99253.72;4986892;28;20057;-67
2021/05/05 03:50:56;;;;;;;8.13;1.60;;;;;;;2.88;58.32;99247.75;4989900;28;20084;-65
2021/05/05 03:53:22;;;;;;;12.15;0.55;;;;;;;3.67;56.40;99238.06;5001365;28;20109;-67
2021/05/05 03:55:47;;;;;;;10.48;1.10;;;;;;;3.28;57.60;99243.75;4985607;28;20098;-65
2021/05/05 03:58:13;;;;;;;5.38;0.70;;;;;;;2.96;58.39;99241.41;4988567;28;20463;-66
2021/05/05 04:00:38;;;;;;;10.90;0.85;;;;;;;3.55;57.24;99250.53;4986310;28;20041;-67
2021/05/05 04:03:04;;;;;;;11.02;0.63;;;;;;;2.76;59.93;99243.84;5006878;28;20017;-67
2021/05/05 04:05:29;;;;;;;7.00;0.30;;;;;;;2.77;59.55;99236.03;5003704;28;20034;-67
2021/05/05 04:07:55;;;;;;;13.68;0.60;;;;;;;3.15;58.80;99246.75;5004297;28;20402;-67
2021/05/05 04:10:20;;;;;;;11.35;0.82;;;;;;;2.88;59.50;99237.41;5003962;28;20087;-70
2021/05/05 04:12:46;;;;;;;16.58;1.05;;;;;;;3.57;57.41;99230.66;5009715;28;20025;-68
2021/05/05 04:15:12;;;;;;;6.68;1.35;;;;;;;3.27;58.23;99232.59;4986281;28;20034;-69
2021/05/05 04:17:37;;;;;;;4.07;0.40;;;;;;;2.90;59.19;99239.03;5002862;28;20038;-69
2021/05/05 04:20:04;;;;;;;7.95;1.38;;;;;;;2.53;59.98;99248.03;4984759;28;20034;-70
2021/05/05 04:22:29;;;;;;;4.43;0.38;;;;;;;3.01;59.26;99240.44;5004222;28;20165;-69
2021/05/05 04:24:55;;;;;;;6.97;0.38;;;;;;;2.98;59.64;99238.78;4991137;28;20046;-70
2021/05/05 04:27:20;;;;;;;3.85;0.50;;;;;;;3.52;58.09;99245.50;4974722;28;20461;-66
2021/05/05 04:29:46;;;;;;;3.92;0.57;;;;;;;3.10;59.73;99248.69;4991549;28;20565;-66
2021/05/05 04:32:13;;;;;;;7.85;1.45;;;;;;;2.96;60.78;99261.22;5005346;28;20026;-66
2021/05/05 04:34:40;;;;;;;12.70;1.52;;;;;;;3.26;60.02;99248.13;5003261;28;20029;-68
2021/05/05 04:37:06;;;;;;;8.60;0.57;;;;;;;2.48;61.69;99247.31;4985626;28;20045;-69
2021/05/05 04:39:36;;;;;;;10.20;0.70;;;;;;;3.06;61.08;99248.84;4989628;28;20041;-67
2021/05/05 04:42:04;;;;;;;10.13;0.55;;;;;;;2.68;61.94;99256.97;4991540;28;20034;-70
2021/05/05 04:44:30;;;;;;;6.03;0.47;;;;;;;3.03;61.25;99257.53;5001545;28;20128;-68
2021/05/05 04:46:56;;;;;;;7.93;0.93;;;;;;;3.26;60.14;99264.47;5003422;28;20075;-66
2021/05/05 04:49:21;;;;;;;6.85;0.85;;;;;;;3.44;59.85;99272.50;4989335;28;20032;-66
2021/05/05 04:51:47;;;;;;;14.88;1.45;;;;;;;3.02;60.66;99276.47;5007035;28;20152;-68
2021/05/05 04:54:13;;;;;;;7.43;0.73;;;;;;;3.30;60.38;99273.81;5007712;28;20066;-65
2021/05/05 04:56:38;;;;;;;8.63;1.52;;;;;;;3.21;60.62;99270.72;5004147;28;20026;-70
2021/05/05 04:59:04;;;;;;;21.15;1.92;;;;;;;3.38;60.50;99276.13;4984068;28;20034;-69
2021/05/05 05:01:30;;;;;;;11.82;0.82;;;;;;;3.51;60.00;99274.78;4999411;28;20030;-66
2021/05/05 05:03:55;;;;;;;5.22;0.63;;;;;;;3.00;61.12;99278.28;4982856;28;20325;-67
2021/05/05 05:06:21;;;;;;;12.60;0.93;;;;;;;3.01;61.16;99285.13;5004010;28;20399;-65
2021/05/05 05:08:46;;;;;;;12.43;0.70;;;;;;;2.39;61.60;99280.31;5000661;28;20533;-66
2021/05/05 05:11:12;;;;;;;4.07;0.85;;;;;;;2.76;60.86;99298.88;4991249;28;20338;-69
2021/05/05 05:13:38;;;;;;;6.32;0.52;;;;;;;3.00;59.72;99290.34;4978388;28;20083;-69
2021/05/05 05:16:04;;;;;;;7.63;0.30;;;;;;;3.56;58.06;99295.28;4988563;28;20514;-68
2021/05/05 05:18:31;;;;;;;4.75;0.40;;;;;;;3.14;58.97;99290.72;5003117;28;20052;-68
2021/05/05 05:20:57;;;;;;;3.60;0.60;;;;;;;3.48;58.38;99300.75;4991279;28;20067;-66
2021/05/05 05:23:22;;;;;;;3.17;0.55;;;;;;;3.45;58.34;99308.59;5006191;28;20502;-66
2021/05/05 05:25:48;;;;;;;2.65;0.20;;;;;;;2.82;59.89;99304.69;4987518;28;20061;-68
2021/05/05 05:28:13;;;;;;;5.68;0.50;;;;;;;3.21;59.13;99302.53;5005036;28;20084;-68
2021/05/05 05:30:39;;;;;;;9.80;0.35;;;;;;;2.87;60.25;99318.31;5005284;28;20132;-66
2021/05/05 05:33:05;;;;;;;8.05;1.33;;;;;;;2.94;60.03;99312.06;5005144;28;20069;-67
2021/05/05 05:35:30;;;;;;;2.80;0.20;;;;;;;2.70;60.86;99311.94;4973365;28;20021;-67
2021/05/05 05:37:56;;;;;;;7.30;0.50;;;;;;;2.53;61.27;99309.94;5002297;28;20065;-67
2021/05/05 05:40:22;;;;;;;3.58;0.95;;;;;;;2.98;59.84;99317.06;4989020;28;20470;-67
2021/05/05 05:42:47;;;;;;;3.45;0.25;;;;;;;3.24;59.55;99309.31;5004077;28;20589;-65
2021/05/05 05:45:15;;;;;;;5.60;0.82;;;;;;;3.36;59.00;99322.69;4987941;28;20491;-65
2021/05/05 05:47:42;;;;;;;7.72;0.35;;;;;;;2.96;59.68;99323.19;4999967;28;20084;-67
2021/05/05 05:50:09;;;;;;;7.20;0.32;;;;;;;3.45;58.34;99310.31;5003710;28;20103;-68
2021/05/05 05:52:35;;;;;;;4.95;0.40;;;;;;;2.88;59.60;99309.66;5003601;28;20104;-67
2021/05/05 05:55:02;;;;;;;4.70;0.55;;;;;;;2.94;59.16;99319.78;4986731;28;20041;-67
2021/05/05 05:57:28;;;;;;;5.95;0.45;;;;;;;3.31;58.83;99324.56;4984126;28;20049;-66
2021/05/05 05:59:54;;;;;;;9.85;0.75;;;;;;;3.03;59.80;99334.97;5003397;28;20034;-66
2021/05/05 06:02:19;;;;;;;5.93;0.98;;;;;;;2.82;60.48;99326.19;5005065;28;20034;-70
2021/05/05 06:04:45;;;;;;;4.20;0.40;;;;;;;3.09;59.96;99334.78;5002525;28;20438;-67
2021/05/05 06:07:11;;;;;;;5.90;0.40;;;;;;;3.29;59.48;99330.69;4981725;28;20034;-66
2021/05/05 06:09:36;;;;;;;5.88;0.73;;;;;;;3.18;59.96;99333.63;5009751;28;20033;-66
2021/05/05 06:12:02;;;;;;;6.40;0.35;;;;;;;3.72;58.48;99334.34;5010555;28;20030;-67
2021/05/05 06:14:28;;;;;;;5.03;1.23;;;;;;;3.37;59.09;99341.59;5010087;28;20025;-67
2021/05/05 06:16:53;;;;;;;2.40;0.47;;;;;;;3.57;58.69;99336.56;4994969;28;20474;-68
2021/05/05 06:19:19;;;;;;;4.90;0.52;;;;;;;3.90;57.61;99343.19;5003778;28;20104;-67
2021/05/05 06:21:44;;;;;;;2.65;0.13;;;;;;;3.85;57.77;99343.34;4988203;28;20296;-66
2021/05/05 06:24:10;;;;;;;9.13;0.55;;;;;;;3.94;57.76;99348.19;5002713;28;20034;-68
2021/05/05 06:26:36;;;;;;;9.23;0.75;;;;;;;4.13;57.65;99357.84;5001188;28;20142;-68
2021/05/05 06:29:02;;;;;;;5.45;0.95;;;;;;;3.88;58.07;99356.16;5002477;28;20061;-71
2021/05/05 06:31:27;;;;;;;11.70;1.35;;;;;;;3.75;58.23;99360.91;5003654;28;20421;-66
2021/05/05 06:33:53;;;;;;;1.58;0.20;;;;;;;3.35;59.04;99364.88;5006585;28;20030;-67
2021/05/05 06:36:18;;;;;;;4.20;1.13;;;;;;;3.63;57.54;99370.84;5002051;28;20487;-65
2021/05/05 06:38:44;;;;;;;6.80;0.50;;;;;;;3.79;58.05;99377.16;4987345;28;20040;-65
2021/05/05 06:41:09;;;;;;;5.32;0.20;;;;;;;3.52;58.30;99368.66;5004616;28;20038;-66
2021/05/05 06:43:35;;;;;;;7.65;0.28;;;;;;;3.82;57.14;99374.47;5007715;28;20037;-65
2021/05/05 06:46:02;;;;;;;2.13;0.70;;;;;;;4.28;56.33;99379.69;5002178;28;20026;-65
2021/05/05 06:48:27;;;;;;;10.00;0.75;;;;;;;3.64;58.19;99377.72;4988635;28;20137;-66
2021/05/05 06:50:53;;;;;;;2.88;0.25;;;;;;;3.97;57.55;99381.66;5000772;28;20033;-65
2021/05/05 06:53:18;;;;;;;3.42;0.28;;;;;;;3.15;58.93;99375.03;5003367;28;20438;-66
2021/05/05 06:55:44;;;;;;;6.95;0.30;;;;;;;3.68;58.71;99389.63;5001595;28;20022;-66
2021/05/05 06:58:10;;;;;;;7.68;0.47;;;;;;;3.15;60.06;99395.66;5001615;28;20410;-65
2021/05/05 07:00:35;;;;;;;1.23;0.30;;;;;;;3.43;58.62;99393.06;5001143;28;20034;-65
2021/05/05 07:03:05;;;;;;;3.70;0.20;;;;;;;3.83;57.98;99404.59;4989397;28;20030;-65
2021/05/05 07:05:30;;;;;;;6.95;0.45;;;;;;;3.91;57.37;99397.38;5000730;28;20026;-64
2021/05/05 07:07:56;;;;;;;6.43;0.40;;;;;;;3.75;57.80;99401.44;4984834;28;20462;-65
2021/05/05 07:10:21;;;;;;;4.57;0.47;;;;;;;3.73;58.08;99390.28;5003685;28;20465;-66
2021/05/05 07:12:47;;;;;;;2.97;0.77;;;;;;;3.38;58.72;99400.97;4989786;28;20082;-64
2021/05/05 07:15:13;;;;;;;7.97;0.63;;;;;;;3.78;58.12;99402.19;4986311;28;20085;-65
2021/05/05 07:17:38;;;;;;;5.93;0.60;;;;;;;4.07;57.36;99408.00;5000742;28;20030;-65
2021/05/05 07:20:05;;;;;;;7.13;0.75;;;;;;;3.63;58.88;99396.66;4978529;28;20482;-65
2021/05/05 07:22:30;;;;;;;5.53;1.17;;;;;;;4.53;57.01;99410.66;5003781;28;20030;-66
2021/05/05 07:24:56;;;;;;;3.53;0.47;;;;;;;4.53;56.76;99410.66;5000814;28;20041;-66
2021/05/05 07:27:21;;;;;;;9.02;0.30;;;;;;;4.12;56.77;99397.50;5001273;28;20126;-65
2021/05/05 07:29:47;;;;;;;4.97;0.30;;;;;;;4.31;56.28;99403.69;5002575;28;20052;-65
2021/05/05 07:32:13;;;;;;;4.25;0.30;;;;;;;4.56;56.19;99426.03;4984535;28;20159;-65
2021/05/05 07:34:40;;;;;;;5.53;0.52;;;;;;;3.61;58.03;99408.84;4988979;28;20029;-64
2021/05/05 07:37:13;;;;;;;1.58;0.10;;;;;;;3.36;59.45;99425.16;4990134;28;20198;-63
2021/05/05 07:45:11;;;;;;;3.63;0.30;;;;;;;3.97;57.05;99417.84;5003837;28;20033;-63
2021/05/05 07:47:48;;;;;;;3.25;0.73;;;;;;;3.74;58.24;99423.00;4999909;28;20084;-64
2021/05/05 07:50:13;;;;;;;8.93;0.73;;;;;;;3.28;58.84;99424.53;5004448;28;20034;-64
2021/05/05 07:52:39;;;;;;;13.73;0.57;;;;;;;4.26;57.75;99423.72;4986678;28;23084;-65
2021/05/05 07:55:07;;;;;;;3.53;0.20;;;;;;;4.49;57.58;99429.78;5005576;28;20464;-64
2021/05/05 07:57:33;;;;;;;7.72;0.30;;;;;;;4.66;56.94;99439.50;4988156;28;20013;-65
2021/05/05 07:59:59;;;;;;;4.72;0.40;;;;;;;4.69;56.45;99437.63;5007223;28;20029;-67
2021/05/05 08:02:25;;;;;;;4.35;0.77;;;;;;;4.09;57.96;99431.25;4984313;28;20030;-65
2021/05/05 08:04:51;;;;;;;2.15;0.28;;;;;;;5.17;56.43;99441.81;5005243;28;20433;-64
2021/05/05 08:07:19;;;;;;;4.88;0.20;;;;;;;6.09;53.83;99445.69;5006111;28;20511;-65
2021/05/05 08:09:45;;;;;;;2.70;0.60;;;;;;;5.23;55.41;99444.16;4988364;28;20046;-64
2021/05/05 08:12:12;;;;;;;3.35;0.95;;;;;;;4.28;56.78;99452.97;5004301;28;20037;-65
2021/05/05 08:14:39;;;;;;;3.60;0.10;;;;;;;3.76;58.30;99459.97;4992919;28;20030;-64
2021/05/05 08:17:06;;;;;;;3.35;0.28;;;;;;;4.59;57.24;99457.84;4999867;28;20084;-63
2021/05/05 08:19:32;;;;;;;3.05;0.30;;;;;;;4.90;56.58;99471.38;4987847;28;20068;-64
2021/05/05 08:21:57;;;;;;;5.80;0.40;;;;;;;4.64;54.49;99465.41;5004556;28;20110;-65
2021/05/05 08:24:23;;;;;;;0.35;0.00;;;;;;;4.72;55.78;99459.94;4990028;28;20041;-66
2021/05/05 08:26:48;;;;;;;0.85;0.10;;;;;;;5.28;54.96;99463.81;5003326;28;20026;-65
2021/05/05 08:29:14;;;;;;;2.65;0.47;;;;;;;5.21;54.52;99458.91;5002772;28;20044;-65
2021/05/05 08:31:39;;;;;;;2.22;0.20;;;;;;;5.14;55.01;99460.03;4987636;28;20033;-66
2021/05/05 08:34:05;;;;;;;2.50;0.20;;;;;;;5.29;54.89;99456.00;4988732;28;20410;-64
2021/05/05 08:36:31;;;;;;;6.70;0.68;;;;;;;5.39;54.67;99470.28;5002152;28;20204;-65
2021/05/05 08:38:57;;;;;;;1.90;0.10;;;;;;;5.72;54.43;99462.00;5002533;28;20040;-65
2021/05/05 08:41:23;;;;;;;0.82;0.10;;;;;;;5.41;54.84;99473.66;5003818;28;20037;-65
2021/05/05 08:43:51;;;;;;;3.15;0.40;;;;;;;4.94;56.38;99485.88;5001305;28;20890;-65
2021/05/05 08:46:17;;;;;;;5.43;0.98;;;;;;;5.26;54.66;99463.91;5001674;28;20026;-66
2021/05/05 08:48:43;;;;;;;4.78;0.35;;;;;;;5.46;54.21;99478.66;4985564;28;20211;-65
2021/05/05 08:51:10;;;;;;;3.17;0.15;;;;;;;4.10;57.25;99495.00;5003989;28;20044;-64
2021/05/05 08:53:36;;;;;;;0.47;0.10;;;;;;;4.45;57.18;99480.78;4980905;28;20033;-65
2021/05/05 08:56:02;;;;;;;2.45;0.10;;;;;;;4.77;56.41;99487.34;5005707;28;20111;-64
2021/05/05 08:58:28;;;;;;;4.65;0.20;;;;;;;6.15;53.56;99477.44;5006940;28;20041;-64
2021/05/05 09:00:53;;;;;;;2.85;0.15;;;;;;;5.98;53.10;99491.16;5003560;28;20041;-65
2021/05/05 09:03:29;;;;;;;5.50;0.40;;;;;;;5.33;54.64;99496.44;5000411;28;20033;-64
2021/05/05 09:06:00;;;;;;;5.03;0.30;;;;;;;4.59;56.71;99503.59;5005716;28;20041;-64
2021/05/05 09:08:28;;;;;;;4.50;0.40;;;;;;;5.60;55.46;99506.59;4989320;28;20053;-65
2021/05/05 09:10:59;;;;;;;2.00;0.20;;;;;;;5.06;56.23;99506.13;5003175;28;20320;-65
2021/05/05 09:13:48;;;;;;;2.55;0.10;;;;;;;5.12;55.58;99513.66;4992043;28;20038;-67
2021/05/05 09:16:16;;;;;;;3.50;0.45;;;;;;;4.97;54.57;99509.09;4986835;28;20038;-63
2021/05/05 09:18:51;;;;;;;5.28;0.32;;;;;;;4.45;56.06;99503.22;5002941;28;20034;-65
2021/05/05 09:21:35;;;;;;;1.45;0.10;;;;;;;4.43;56.82;99519.66;5008449;28;20445;-66
2021/05/05 09:24:13;;;;;;;5.18;0.43;;;;;;;4.83;56.41;99527.69;5007396;28;20057;-66
2021/05/05 09:26:38;;;;;;;6.20;0.52;;;;;;;4.48;57.27;99527.25;5004658;28;20034;-66
2021/05/05 09:29:04;;;;;;;3.60;0.10;;;;;;;4.93;56.96;99536.00;5006042;28;20099;-65
2021/05/05 09:31:34;;;;;;;3.22;0.47;;;;;;;5.00;55.88;99535.69;5003374;28;20484;-64
2021/05/05 09:34:01;;;;;;;2.22;0.30;;;;;;;5.59;55.11;99529.06;4988402;28;20061;-64
2021/05/05 09:36:27;;;;;;;4.40;0.20;;;;;;;5.02;55.72;99544.25;4987630;28;20535;-64
2021/05/05 09:38:52;;;;;;;1.48;0.17;;;;;;;5.65;54.11;99543.53;5005514;28;20521;-63
2021/05/05 09:41:21;;;;;;;2.65;0.30;;;;;;;5.04;55.28;99541.59;5007267;28;20032;-63
2021/05/05 09:43:47;;;;;;;8.02;0.57;;;;;;;5.10;54.89;99551.75;5002776;28;20210;-65
2021/05/05 09:46:42;;;;;;;4.95;0.20;;;;;;;5.12;54.42;99549.91;4985925;28;20034;-66
2021/05/05 09:49:25;;;;;;;7.15;0.32;;;;;;;5.44;54.42;99564.22;5005573;28;20491;-64
2021/05/05 09:52:00;;;;;;;1.95;0.60;;;;;;;5.41;54.63;99555.72;5007088;28;20029;-65
2021/05/05 09:54:33;;;;;;;1.60;0.30;;;;;;;5.40;54.47;99559.22;5004633;28;20515;-64
2021/05/05 09:57:18;;;;;;;5.22;1.05;;;;;;;5.19;54.77;99559.16;5006054;28;20018;-64
2021/05/05 10:00:16;;;;;;;9.65;0.65;;;;;;;4.94;54.83;99558.38;4989659;28;20060;-67
2021/05/05 10:02:45;;;;;;;6.22;0.50;;;;;;;6.35;53.19;99559.66;4960225;28;20037;-64
2021/05/05 10:05:34;;;;;;;5.50;0.95;;;;;;;6.29;52.14;99561.59;5002392;28;20081;-64
2021/05/05 10:08:04;;;;;;;8.65;0.50;;;;;;;7.06;51.16;99565.13;4996694;28;20026;-65
2021/05/05 10:10:32;;;;;;;6.82;0.95;;;;;;;5.73;53.45;99582.13;5002409;28;20327;-66
2021/05/05 10:13:03;;;;;;;6.28;1.58;;;;;;;5.92;52.98;99582.19;5002352;28;20033;-64
2021/05/05 10:15:34;;;;;;;3.92;0.57;;;;;;;6.25;53.18;99587.72;4999831;28;20048;-64
2021/05/05 10:18:01;;;;;;;7.95;1.48;;;;;;;5.64;52.92;99578.97;4999571;28;20108;-64
2021/05/05 10:20:28;;;;;;;12.98;1.25;;;;;;;5.65;53.78;99598.78;5005181;28;20038;-63
2021/05/05 10:23:02;;;;;;;3.40;0.88;;;;;;;5.58;54.27;99615.50;4974115;28;20224;-65
2021/05/05 10:25:29;;;;;;;7.50;0.38;;;;;;;5.81;54.23;99609.38;5002056;28;20120;-64
2021/05/05 10:27:56;;;;;;;5.97;0.43;;;;;;;6.24;51.81;99617.19;5005594;28;20049;-65
2021/05/05 10:30:29;;;;;;;6.00;0.73;;;;;;;6.18;50.96;99614.84;4986096;28;20484;-64
2021/05/05 10:32:56;;;;;;;6.57;0.63;;;;;;;6.27;51.02;99614.44;5005568;28;20044;-64
2021/05/05 10:35:26;;;;;;;8.85;0.98;;;;;;;5.87;52.24;99626.47;5002471;28;20470;-65
2021/05/05 10:38:00;;;;;;;7.45;0.85;;;;;;;5.84;52.04;99636.97;5003041;28;20034;-64
2021/05/05 10:40:28;;;;;;;9.60;1.10;;;;;;;6.65;50.37;99637.97;5005305;28;20041;-63
2021/05/05 10:42:59;;;;;;;3.70;0.52;;;;;;;6.56;50.39;99643.56;5000188;28;20037;-64
2021/05/05 10:45:32;;;;;;;4.28;0.50;;;;;;;6.57;50.34;99637.44;5004186;28;20045;-64
2021/05/05 10:48:17;;;;;;;6.95;1.48;;;;;;;6.86;49.65;99639.63;5003531;28;20061;-66
2021/05/05 10:50:50;;;;;;;12.23;1.20;;;;;;;6.24;50.41;99650.91;4982197;28;20029;-63
2021/05/05 10:53:20;;;;;;;7.38;0.57;;;;;;;6.95;49.57;99651.34;5003745;28;20084;-64
2021/05/05 10:55:58;;;;;;;4.22;0.80;;;;;;;6.58;50.46;99659.91;5002501;28;20402;-63
2021/05/05 10:58:32;;;;;;;4.00;1.17;;;;;;;7.02;49.63;99677.88;4992158;28;20122;-65
2021/05/05 11:01:02;;;;;;;7.43;0.75;;;;;;;6.83;49.77;99664.88;4990738;28;20053;-68
2021/05/05 11:03:57;;;;;;;2.90;0.47;;;;;;;7.10;48.66;99662.81;5005760;28;20037;-65
2021/05/05 11:06:36;;;;;;;9.07;1.10;;;;;;;6.99;50.15;99670.25;4974643;28;20030;-63
2021/05/05 11:09:15;;;;;;;5.80;0.50;;;;;;;7.66;48.29;99674.97;4986197;28;20038;-64
2021/05/05 11:11:44;;;;;;;11.38;0.90;;;;;;;8.17;47.41;99672.56;4999697;28;20049;-63
2021/05/05 11:14:32;;;;;;;6.90;0.95;;;;;;;7.62;49.55;99683.84;4981804;28;20073;-63
2021/05/05 11:17:02;;;;;;;14.23;1.35;;;;;;;8.13;49.63;99660.63;4994852;28;20057;-63
2021/05/05 11:19:38;;;;;;;6.70;0.77;;;;;;;7.44;49.32;99674.25;4990965;28;20076;-64
2021/05/05 11:22:18;;;;;;;7.32;0.98;;;;;;;6.82;49.34;99700.41;4989509;28;20096;-63
2021/05/05 11:24:49;;;;;;;13.57;0.73;;;;;;;7.22;49.55;99705.59;5006311;28;20034;-64
2021/05/05 11:27:18;;;;;;;13.43;1.25;;;;;;;7.68;48.94;99709.56;5006556;28;20027;-64
2021/05/05 11:29:51;;;;;;;6.78;1.40;;;;;;;5.50;52.93;99741.09;4993344;28;20109;-63
2021/05/05 11:32:24;;;;;;;6.22;0.20;;;;;;;4.77;54.58;99735.03;5004191;28;20481;-64
2021/05/05 11:34:50;;;;;;;4.63;0.57;;;;;;;5.67;54.97;99731.78;5004927;28;20033;-65
2021/05/05 11:37:22;;;;;;;10.40;0.80;;;;;;;6.45;54.55;99727.91;5007063;28;20041;-63
2021/05/05 11:39:54;;;;;;;17.20;1.05;;;;;;;6.67;52.78;99742.59;5010993;28;20022;-65
2021/05/05 11:42:23;;;;;;;8.13;1.02;;;;;;;7.10;50.63;99745.94;4991345;28;20038;-63
2021/05/05 11:44:51;;;;;;;3.53;0.65;;;;;;;6.20;52.97;99753.97;4999489;28;20034;-65
2021/05/05 11:47:25;;;;;;;5.43;0.95;;;;;;;6.34;53.38;99756.03;5002757;28;20057;-65
2021/05/05 11:49:53;;;;;;;8.57;0.50;;;;;;;6.60;51.60;99762.78;5002599;28;20124;-66